• Join FlightAware (Why Join?)
  • Login
  • US Flag 
08:29PM EDT


 

Airport Tracker/Info


-or-


 

Live Flight TrackerFlight Track Log ✈ CTL62 ✈ 02-May-2013 ✈ KOSU - KPWK

Flight Track Log - Related Links

Times and Time Zones

All times are in EDT time to prevent confusion due to time zone crossing. See the CTL62 flight status page for this flight to view local times or setup timezone preferences in your user account.

Time Position Orientation Groundspeed Altitude Reporting Facility
EDT Latitude Longitude Course Direction KTS MPH feet Rate Location/Type
10:10PM 40.0783 -83.0578 20° North 131 151 1,100  Level Indianapolis Center
10:12PM 40.1089 -83.0433 20° North 193 222 2,300 1,080 Climbing Indianapolis Center
10:13PM 40.1261 -83.0881 297° West 136 157 3,400 960 Climbing Indianapolis Center
10:14PM 40.1497 -83.1453 298° West 151 174 4,400 780 Climbing Indianapolis Center
10:15PM 40.1675 -83.1819 302° West 148 170 5,100 720 Climbing Indianapolis Center
10:16PM 40.1892 -83.2317 300° West 154 177 5,800 420 Climbing Indianapolis Center
10:17PM 40.2131 -83.2836 301° West 162 186 6,000 120 Climbing Indianapolis Center
10:18PM 40.2392 -83.3425 300° West 180 207 6,100  Climbing Indianapolis Center
10:19PM 40.2644 -83.4031 299° West 187 215 6,000  Descending Indianapolis Center
10:20PM 40.2911 -83.4617 301° West 187 215 6,100  Climbing Indianapolis Center
10:21PM 40.3203 -83.5200 303° West 189 217 6,000 -60 Descending Indianapolis Center
10:22PM 40.3456 -83.5797 299° West 187 215 6,000  Level Indianapolis Center
10:23PM 40.3764 -83.6472 301° West 185 213 6,100  Climbing Indianapolis Center
10:24PM 40.4031 -83.7069 300° West 187 215 6,000 -60 Descending Indianapolis Center
10:25PM 40.4319 -83.7644 303° West 187 215 6,000  Level Indianapolis Center
10:26PM 40.4578 -83.8239 300° West 186 214 6,000  Level Indianapolis Center
10:27PM 40.4850 -83.8828 301° West 186 214 6,100  Climbing Indianapolis Center
10:28PM 40.5108 -83.9439 299° West 188 216 6,000  Descending Indianapolis Center
10:29PM 40.5378 -84.0053 300° West 191 220 6,100  Climbing Indianapolis Center
10:30PM 40.5664 -84.0639 303° West 190 219 6,100  Level Indianapolis Center
10:31PM 40.5919 -84.1242 299° West 189 217 6,100  Level Indianapolis Center
10:32PM 40.6192 -84.1836 301° West 189 217 6,100 -60 Level Indianapolis Center
10:33PM 40.6483 -84.2414 304° West 188 216 6,000  Descending Indianapolis Center
10:34PM 40.6756 -84.2992 302° West 186 214 6,100  Climbing Indianapolis Center
10:35PM 40.7019 -84.3581 301° West 185 213 6,100  Level Indianapolis Center
10:35PM 40.7142 -84.3822 304° West 185 213 6,100 -120 Level Chicago Center
10:36PM 40.7389 -84.4433 298° West 186 214 6,000  Descending Chicago Center
10:37PM 40.7639 -84.5033 299° West 187 215 6,100  Climbing Chicago Center
10:38PM 40.7886 -84.5625 299° West 186 214 6,100 -60 Level Chicago Center
10:39PM 40.8139 -84.6217 299° West 185 213 6,000 -60 Descending Chicago Center
10:41PM 40.8394 -84.6800 300° West 185 213 6,000  Level Chicago Center
10:42PM 40.8647 -84.7389 300° West 185 213 6,100  Climbing Chicago Center
10:43PM 40.8894 -84.7975 299° West 184 212 6,000  Descending Chicago Center
10:44PM 40.9194 -84.8669 300° West 183 211 6,100  Climbing Chicago Center
10:45PM 40.9439 -84.9264 299° West 183 211 6,000 -60 Descending Chicago Center
10:46PM 40.9686 -84.9856 299° West 184 212 6,000  Level Chicago Center
10:47PM 40.9931 -85.0456 298° West 184 212 6,000  Level Chicago Center
10:48PM 41.0200 -85.1036 302° West 185 213 6,000  Level Chicago Center
10:49PM 41.0447 -85.1644 298° West 186 214 6,100  Climbing Chicago Center
10:50PM 41.0694 -85.2247 299° West 186 214 6,000  Descending Chicago Center
10:51PM 41.0953 -85.2861 299° West 188 216 6,100  Climbing Chicago Center
10:52PM 41.1256 -85.3600 299° West 190 219 6,100  Level Chicago Center
10:53PM 41.1503 -85.4206 298° West 188 216 6,100 -60 Level Chicago Center
10:54PM 41.1753 -85.4806 299° West 187 215 6,000 -60 Descending Chicago Center
10:55PM 41.1994 -85.5408 298° West 186 214 6,000  Level Chicago Center
10:56PM 41.2231 -85.6008 298° West 185 213 6,000  Level Chicago Center
10:57PM 41.2486 -85.6600 300° West 184 212 6,000  Level Chicago Center
10:58PM 41.2736 -85.7206 299° West 185 213 6,100  Climbing Chicago Center
10:59PM 41.2994 -85.7806 300° West 186 214 6,100  Level Chicago Center
11:00PM 41.3239 -85.8408 298° West 186 214 6,100  Level Chicago Center
11:01PM 41.3472 -85.8997 298° West 183 211 6,100  Level Chicago Center
11:02PM 41.3714 -85.9583 299° West 182 209 6,100  Level Chicago Center
11:03PM 41.3997 -86.0286 298° West 180 207 6,100  Level Chicago Center
11:04PM 41.4236 -86.0864 299° West 179 206 6,100 -60 Level Chicago Center
11:05PM 41.4475 -86.1450 299° West 180 207 6,000  Descending Chicago Center
11:06PM 41.4725 -86.2036 300° West 181 208 6,100  Climbing Chicago Center
11:07PM 41.4964 -86.2633 298° West 182 209 6,100 -60 Level Chicago Center
11:08PM 41.5203 -86.3233 298° West 182 209 6,000 -60 Descending Chicago Center
11:09PM 41.5442 -86.3842 298° West 185 213 6,000  Level Chicago Center
11:10PM 41.5689 -86.4433 299° West 184 212 6,000  Level Chicago Center
11:11PM 41.5931 -86.5053 298° West 189 217 6,000 -240 Level Chicago Center
11:12PM 41.6167 -86.5683 297° West 190 219 5,600 -480 Descending Chicago Center
11:13PM 41.6436 -86.6353 298° West 200 230 5,100 -600 Descending Chicago Center
11:14PM 41.6714 -86.7058 298° West 205 236 4,500 -540 Descending Chicago Center
11:15PM 41.6983 -86.7733 298° West 206 237 4,000 -300 Descending Chicago Center
11:16PM 41.7261 -86.8508 296° West 196 226 4,000  Level Chicago Center
11:17PM 41.7494 -86.9119 297° West 189 217 4,100  Climbing Chicago Center
11:18PM 41.7736 -86.9750 297° West 190 219 4,100  Level Chicago Center
11:19PM 41.7981 -87.0364 298° West 190 219 4,100 -180 Level Chicago Center
11:20PM 41.8203 -87.1006 295° West 190 219 3,800 -300 Descending Chicago Center
11:21PM 41.8447 -87.1664 297° West 193 222 3,500 -360 Descending Chicago Center
11:22PM 41.8708 -87.2328 298° West 197 227 3,100 -240 Descending Chicago Center
11:23PM 41.8975 -87.2989 298° West 200 230 3,100  Level Chicago Center
11:24PM 41.9275 -87.3583 304° West 199 229 3,100  Level Chicago Center
11:25PM 41.9667 -87.4167 312° West 196 226 3,100  Level Chicago TRACON
11:26PM 42.0000 -87.4667 312° West 192 221 3,100  Level Chicago TRACON
11:27PM 42.0333 -87.5333 304° West 190 219 3,100 -300 Level Chicago TRACON
11:28PM 42.0667 -87.5833 312° West 196 226 2,500 -600 Descending Chicago TRACON
11:29PM 42.0833 -87.6500 289° West 195 224 2,000 -420 Descending Chicago TRACON
11:30PM 42.1000 -87.7167 289° West 160 184 1,700 -300 Descending Chicago TRACON
11:31PM 42.1000 -87.7667 270° West 158 182 1,500 -240 Descending Chicago TRACON
11:32PM 42.1167 -87.8333 289° West 161 185 1,300 -240 Descending Chicago TRACON
11:34PM 42.1000 -87.9000 289° West  Level FlightAware Approximate
11:41PM 42.1143 -87.9015 289° West  Level Estimated